Terminal Aerodrome Forecast
Issued by NWS

Home | Current Version | Previous Version | Graphics & Text | Print | Product List | Glossary Off
Versions: 1 2 3 4 5 6 7 8 9 10 11 12 13 14 15 16 17 18 19 20 21 22 23 24 25 26 27 28 29 30 31 32 33 34 35 36 37 38 39 40

615
FTUS43 KDDC 182338
TAFGCK
TAF
KGCK 182338Z 1900/1924 16008KT P6SM SCT250
     FM191000 16010KT P6SM BKN008
     FM191100 16010KT 3SM BR BKN008
     FM191300 16011KT 1/2SM FG VV002
     FM191600 16013KT 3SM BR BKN035
     FM191700 16015G23KT P6SM BKN150=

USA.gov is the U.S. government's official web portal to all federal, state and local government web resources and services.